Time;durP1;ratioP1;P1;durP2;ratioP2;P2;SDS_P1;SDS_P2;PMS_P1;PMS_P2;Temp;Humidity;BMP_temperature;BMP_pressure;BME280_temperature;BME280_humidity;BME280_pressure;Samples;Min_cycle;Max_cycle;Signal;HPM_P1;HPM_P2
2023/04/24 00:01:58;;;;;;;0.95;0.80;;;9.60;99.90;;;;;;5025225;28;20033;-65
2023/04/24 00:04:25;;;;;;;1.13;0.80;;;9.50;99.90;;;;;;5023387;28;20046;-65
2023/04/24 00:06:53;;;;;;;1.75;0.80;;;9.50;99.90;;;;;;5031422;28;20547;-65
2023/04/24 00:09:19;;;;;;;1.15;1.05;;;9.40;99.90;;;;;;5023619;28;20048;-65
2023/04/24 00:11:44;;;;;;;1.10;1.00;;;9.40;99.90;;;;;;5023116;28;20034;-65
2023/04/24 00:14:10;;;;;;;1.40;1.20;;;9.40;99.90;;;;;;5022587;28;20041;-65
2023/04/24 00:16:36;;;;;;;1.55;1.38;;;9.30;99.90;;;;;;5023141;28;20533;-66
2023/04/24 00:19:01;;;;;;;1.70;1.40;;;9.30;99.90;;;;;;5026794;28;20041;-66
2023/04/24 00:21:27;;;;;;;2.78;1.65;;;9.30;99.90;;;;;;5023604;28;20041;-65
2023/04/24 00:23:53;;;;;;;2.75;1.38;;;9.30;99.90;;;;;;5028751;28;20033;-65
2023/04/24 00:26:18;;;;;;;1.63;1.48;;;9.30;99.90;;;;;;5025482;28;20045;-65
2023/04/24 00:28:44;;;;;;;1.88;1.73;;;9.30;99.90;;;;;;5028731;28;20056;-65
2023/04/24 00:31:09;;;;;;;2.38;1.92;;;9.40;99.90;;;;;;5024677;28;20045;-65
2023/04/24 00:33:35;;;;;;;2.20;1.90;;;9.40;99.90;;;;;;5027308;28;20076;-64
2023/04/24 00:36:01;;;;;;;2.90;2.13;;;9.40;99.90;;;;;;5031503;28;20511;-65
2023/04/24 00:38:27;;;;;;;2.03;1.80;;;9.40;99.90;;;;;;5030733;28;20060;-65
2023/04/24 00:40:53;;;;;;;2.50;2.10;;;9.40;99.90;;;;;;5032803;28;20041;-66
2023/04/24 00:43:19;;;;;;;2.75;2.00;;;9.40;99.90;;;;;;5020218;28;20044;-65
2023/04/24 00:45:46;;;;;;;3.15;2.10;;;9.40;99.90;;;;;;5025165;28;20614;-65
2023/04/24 00:48:11;;;;;;;2.50;2.10;;;9.40;99.90;;;;;;5027141;28;20157;-65
2023/04/24 00:50:38;;;;;;;3.53;2.20;;;9.40;99.90;;;;;;5017217;28;20458;-65
2023/04/24 00:53:03;;;;;;;3.15;2.35;;;9.40;99.90;;;;;;5029606;28;20041;-66
2023/04/24 00:55:30;;;;;;;2.78;2.10;;;9.40;99.90;;;;;;5026591;28;20034;-65
2023/04/24 00:57:55;;;;;;;2.42;2.15;;;9.40;99.90;;;;;;5006668;28;20045;-65
2023/04/24 01:00:21;;;;;;;4.45;2.30;;;9.40;99.90;;;;;;5024925;28;20065;-65
2023/04/24 01:02:47;;;;;;;3.33;2.10;;;9.40;99.90;;;;;;5002953;28;20046;-65
2023/04/24 01:05:14;;;;;;;2.85;2.40;;;9.40;99.90;;;;;;5023601;28;20508;-65
2023/04/24 01:07:43;;;;;;;3.20;2.40;;;9.40;99.90;;;;;;5021902;28;20049;-65
2023/04/24 01:10:09;;;;;;;3.42;2.50;;;9.40;99.90;;;;;;5025988;28;20056;-65
2023/04/24 01:12:35;;;;;;;3.72;2.78;;;9.40;99.90;;;;;;5025522;28;20056;-65
2023/04/24 01:15:01;;;;;;;4.70;3.20;;;9.40;99.90;;;;;;5022845;28;20750;-65
2023/04/24 01:17:26;;;;;;;5.22;3.38;;;9.50;99.90;;;;;;5012377;28;20065;-65
2023/04/24 01:19:57;;;;;;;4.75;3.25;;;9.50;99.90;;;;;;5018060;28;20808;-65
2023/04/24 01:22:22;;;;;;;7.10;3.60;;;9.40;99.90;;;;;;5013987;28;20143;-65
2023/04/24 01:24:48;;;;;;;5.22;3.47;;;9.40;99.90;;;;;;5018785;28;20037;-64
2023/04/24 01:27:15;;;;;;;5.55;3.38;;;9.50;99.90;;;;;;5020455;28;20053;-65
2023/04/24 01:29:41;;;;;;;6.88;4.30;;;9.50;99.90;;;;;;5017507;28;20492;-65
2023/04/24 01:32:07;;;;;;;5.18;3.83;;;9.40;99.90;;;;;;5013892;28;21052;-64
2023/04/24 01:34:33;;;;;;;6.88;4.28;;;9.50;99.90;;;;;;4998209;28;20049;-64
2023/04/24 01:36:59;;;;;;;6.88;3.92;;;9.50;99.90;;;;;;5015400;28;20037;-65
2023/04/24 01:39:25;;;;;;;7.13;4.40;;;9.60;99.90;;;;;;5023037;28;20037;-65
2023/04/24 01:41:52;;;;;;;7.97;5.20;;;9.60;99.90;;;;;;5015986;28;20120;-64
2023/04/24 01:44:18;;;;;;;7.80;4.88;;;9.50;99.90;;;;;;4998108;28;20042;-65
2023/04/24 01:46:44;;;;;;;7.93;4.93;;;9.60;99.90;;;;;;5010035;28;20462;-65
2023/04/24 01:49:10;;;;;;;7.55;4.90;;;9.50;99.90;;;;;;5013634;28;20049;-65
2023/04/24 01:51:36;;;;;;;8.38;5.05;;;9.50;99.90;;;;;;5009872;28;20069;-64
2023/04/24 01:54:01;;;;;;;7.75;4.53;;;9.50;99.90;;;;;;5024652;28;20037;-66
2023/04/24 01:56:29;;;;;;;7.40;4.90;;;9.50;99.90;;;;;;5019332;28;20040;-64
2023/04/24 01:58:56;;;;;;;7.47;4.47;;;9.50;99.90;;;;;;5020348;28;20049;-65
2023/04/24 02:01:23;;;;;;;8.50;4.95;;;9.50;99.90;;;;;;5013988;28;20088;-66
2023/04/24 02:03:48;;;;;;;8.57;4.95;;;9.40;99.90;;;;;;5025342;28;20049;-66
2023/04/24 02:06:14;;;;;;;7.20;5.45;;;9.40;99.90;;;;;;5005765;28;20517;-65
2023/04/24 02:08:39;;;;;;;7.18;5.10;;;9.20;99.90;;;;;;5023185;28;20096;-65
2023/04/24 02:11:05;;;;;;;6.97;5.68;;;9.20;99.90;;;;;;5025401;28;20766;-65
2023/04/24 02:13:31;;;;;;;7.03;5.70;;;9.10;99.90;;;;;;5027229;28;20045;-66
2023/04/24 02:15:58;;;;;;;8.88;6.28;;;9.20;99.90;;;;;;5020002;28;20034;-65
2023/04/24 02:18:24;;;;;;;8.48;6.57;;;9.10;99.90;;;;;;5018676;28;20374;-65
2023/04/24 02:20:49;;;;;;;8.30;6.13;;;9.00;99.90;;;;;;5021879;28;20045;-65
2023/04/24 02:23:15;;;;;;;7.75;6.30;;;9.10;99.90;;;;;;5022042;28;20100;-65
2023/04/24 02:25:41;;;;;;;9.18;6.68;;;9.10;99.90;;;;;;5027018;28;20040;-65
2023/04/24 02:28:06;;;;;;;7.78;6.18;;;9.00;99.90;;;;;;5020124;28;20436;-64
2023/04/24 02:30:32;;;;;;;8.15;6.15;;;9.10;99.90;;;;;;5032250;28;20037;-64
2023/04/24 02:32:57;;;;;;;8.95;6.57;;;9.10;99.90;;;;;;5023206;28;20094;-65
2023/04/24 02:35:23;;;;;;;8.68;6.10;;;9.10;99.90;;;;;;5026551;28;20041;-65
2023/04/24 02:37:48;;;;;;;8.30;6.30;;;9.00;99.90;;;;;;5029074;28;20374;-65
2023/04/24 02:40:14;;;;;;;7.93;6.03;;;9.00;99.90;;;;;;5032107;28;20099;-64
2023/04/24 02:42:40;;;;;;;8.23;6.47;;;9.00;99.90;;;;;;5030039;28;20458;-65
2023/04/24 02:45:06;;;;;;;7.45;5.72;;;8.90;99.90;;;;;;5006796;28;20056;-64
2023/04/24 02:47:31;;;;;;;9.27;6.47;;;8.90;99.90;;;;;;5019679;28;21047;-65
2023/04/24 02:49:57;;;;;;;8.23;6.75;;;8.90;99.90;;;;;;5002033;28;20052;-65
2023/04/24 02:52:22;;;;;;;7.97;6.55;;;8.90;99.90;;;;;;5017738;28;20044;-64
2023/04/24 02:54:48;;;;;;;8.60;6.47;;;8.90;99.90;;;;;;5027943;28;20087;-64
2023/04/24 02:57:13;;;;;;;9.57;7.10;;;8.90;99.90;;;;;;5027271;28;20068;-65
2023/04/24 02:59:39;;;;;;;9.65;6.22;;;8.90;99.90;;;;;;5026476;28;22767;-64
2023/04/24 03:02:05;;;;;;;8.75;6.20;;;8.90;99.90;;;;;;5026362;28;20500;-64
2023/04/24 03:04:31;;;;;;;9.10;6.55;;;8.90;99.90;;;;;;5031906;28;20520;-65
2023/04/24 03:06:57;;;;;;;9.90;6.72;;;8.80;99.90;;;;;;5028867;28;20577;-63
2023/04/24 03:09:23;;;;;;;8.70;6.65;;;8.80;99.90;;;;;;5025550;28;20109;-64
2023/04/24 03:11:49;;;;;;;10.93;7.28;;;8.80;99.90;;;;;;5031484;28;20033;-64
2023/04/24 03:14:15;;;;;;;10.00;7.22;;;8.90;99.90;;;;;;5030912;28;20053;-64
2023/04/24 03:16:40;;;;;;;9.30;6.88;;;8.80;99.90;;;;;;5022824;28;20040;-64
2023/04/24 03:19:06;;;;;;;9.73;6.75;;;8.80;99.90;;;;;;5027875;28;20366;-64
2023/04/24 03:21:32;;;;;;;11.30;7.18;;;8.80;99.90;;;;;;5027410;28;20040;-64
2023/04/24 03:23:58;;;;;;;9.80;6.82;;;8.80;99.90;;;;;;5029244;28;20041;-63
2023/04/24 03:26:23;;;;;;;10.75;7.43;;;8.80;99.90;;;;;;5022057;28;20060;-65
2023/04/24 03:28:49;;;;;;;10.02;6.88;;;8.80;99.90;;;;;;5029253;28;20094;-64
2023/04/24 03:31:15;;;;;;;10.93;7.00;;;8.70;99.90;;;;;;5017413;28;20560;-64
2023/04/24 03:33:41;;;;;;;11.98;7.72;;;8.70;99.90;;;;;;5009054;28;20034;-64
2023/04/24 03:36:06;;;;;;;10.80;7.53;;;8.80;99.90;;;;;;5015449;28;20069;-64
2023/04/24 03:38:32;;;;;;;11.85;7.60;;;8.80;99.90;;;;;;5029432;28;20090;-63
2023/04/24 03:40:58;;;;;;;10.15;7.60;;;8.70;99.90;;;;;;5028305;28;20038;-63
2023/04/24 03:43:23;;;;;;;10.70;7.25;;;8.80;99.90;;;;;;5029145;28;20048;-63
2023/04/24 03:45:49;;;;;;;10.98;7.57;;;8.70;99.90;;;;;;5008103;28;20370;-64
2023/04/24 03:48:14;;;;;;;11.02;8.07;;;8.70;99.90;;;;;;5019629;28;20048;-64
2023/04/24 03:50:40;;;;;;;11.02;7.43;;;8.70;99.90;;;;;;5026143;28;20096;-64
2023/04/24 03:53:05;;;;;;;10.98;7.78;;;8.60;99.90;;;;;;5029571;28;20041;-64
2023/04/24 03:55:31;;;;;;;10.32;7.53;;;8.70;99.90;;;;;;5030357;28;20045;-64
2023/04/24 03:57:57;;;;;;;11.32;7.50;;;8.70;99.90;;;;;;5029759;28;20029;-64
2023/04/24 04:00:22;;;;;;;9.95;7.15;;;8.60;99.90;;;;;;5030204;28;20045;-63
2023/04/24 04:02:48;;;;;;;9.57;7.13;;;8.60;99.90;;;;;;5009673;28;20073;-64
2023/04/24 04:05:13;;;;;;;11.25;7.40;;;8.60;99.90;;;;;;5027811;28;20041;-64
2023/04/24 04:07:39;;;;;;;9.75;7.15;;;8.60;99.90;;;;;;5022455;28;20029;-64
2023/04/24 04:10:06;;;;;;;11.05;7.38;;;8.60;99.90;;;;;;5030276;28;20049;-65
2023/04/24 04:12:32;;;;;;;11.10;7.00;;;8.60;99.90;;;;;;5027026;28;20036;-64
2023/04/24 04:14:58;;;;;;;10.15;7.38;;;8.70;99.90;;;;;;5004999;28;20042;-64
2023/04/24 04:17:23;;;;;;;10.30;6.60;;;8.60;99.90;;;;;;5024978;28;20136;-64
2023/04/24 04:19:49;;;;;;;11.80;7.30;;;8.60;99.90;;;;;;5021032;28;20048;-64
2023/04/24 04:22:14;;;;;;;10.32;7.50;;;8.70;99.90;;;;;;5018093;28;20172;-65
2023/04/24 04:24:40;;;;;;;11.10;6.47;;;8.60;99.90;;;;;;5025128;28;20056;-64
2023/04/24 04:27:06;;;;;;;11.07;6.57;;;8.70;99.90;;;;;;5025171;28;20033;-64
2023/04/24 04:29:32;;;;;;;13.57;6.88;;;8.70;99.90;;;;;;5020892;28;20473;-65
2023/04/24 04:31:58;;;;;;;10.05;6.38;;;8.70;99.90;;;;;;5018178;28;20095;-64
2023/04/24 04:34:24;;;;;;;8.27;6.05;;;8.70;99.90;;;;;;5018174;28;20077;-66
2023/04/24 04:36:50;;;;;;;10.35;5.93;;;8.70;99.90;;;;;;5017733;28;20120;-64
2023/04/24 04:39:16;;;;;;;6.95;5.13;;;8.70;99.90;;;;;;5018781;28;20033;-64
2023/04/24 04:41:42;;;;;;;7.63;5.38;;;8.70;99.90;;;;;;5019922;28;20115;-64
2023/04/24 04:44:08;;;;;;;7.82;5.53;;;8.70;99.90;;;;;;5019742;28;20396;-63
2023/04/24 04:46:34;;;;;;;8.93;5.72;;;8.70;99.90;;;;;;5014726;28;20075;-65
2023/04/24 04:49:01;;;;;;;7.90;5.13;;;8.80;99.90;;;;;;5023535;28;20045;-64
2023/04/24 04:51:27;;;;;;;9.13;5.95;;;8.80;99.90;;;;;;5017364;28;20041;-64
2023/04/24 04:53:52;;;;;;;8.95;6.25;;;8.80;99.90;;;;;;5021288;28;20052;-65
2023/04/24 04:56:18;;;;;;;9.57;6.43;;;8.80;99.90;;;;;;5019665;28;20045;-64
2023/04/24 04:58:44;;;;;;;8.55;6.25;;;8.80;99.90;;;;;;5019116;28;20685;-64
2023/04/24 05:01:09;;;;;;;10.80;5.57;;;8.80;99.90;;;;;;5017189;28;20493;-65
2023/04/24 05:03:36;;;;;;;9.38;5.63;;;8.70;99.90;;;;;;5017943;28;20049;-64
2023/04/24 05:06:02;;;;;;;9.85;6.07;;;8.80;99.90;;;;;;5009413;28;20060;-66
2023/04/24 05:08:28;;;;;;;9.45;6.03;;;8.80;99.90;;;;;;5023133;28;20041;-64
2023/04/24 05:10:54;;;;;;;8.57;5.70;;;8.60;99.90;;;;;;5019467;28;20040;-64
2023/04/24 05:13:20;;;;;;;7.65;5.30;;;8.70;99.90;;;;;;5015367;28;20029;-64
2023/04/24 05:15:46;;;;;;;8.88;5.60;;;8.70;99.90;;;;;;5000774;28;20045;-65
2023/04/24 05:18:11;;;;;;;7.72;4.93;;;8.70;99.90;;;;;;5015704;28;20046;-64
2023/04/24 05:20:37;;;;;;;7.45;5.13;;;8.70;99.90;;;;;;5018210;28;20059;-64
2023/04/24 05:23:02;;;;;;;6.38;4.57;;;8.70;99.90;;;;;;5023410;28;20081;-64
2023/04/24 05:25:28;;;;;;;7.32;4.28;;;8.60;99.90;;;;;;5000355;28;20045;-65
2023/04/24 05:27:54;;;;;;;6.57;4.43;;;8.60;99.90;;;;;;5016629;28;20042;-65
2023/04/24 05:30:19;;;;;;;6.05;4.38;;;8.60;99.90;;;;;;5003380;28;20041;-66
2023/04/24 05:32:45;;;;;;;8.10;4.45;;;8.60;99.90;;;;;;5006694;28;20042;-65
2023/04/24 05:35:11;;;;;;;7.43;4.43;;;8.70;99.90;;;;;;5000647;28;20046;-65
2023/04/24 05:37:37;;;;;;;6.25;4.45;;;8.60;99.90;;;;;;5024267;28;20044;-65
2023/04/24 05:40:05;;;;;;;7.85;4.60;;;8.70;99.90;;;;;;5018028;28;20065;-64
2023/04/24 05:42:31;;;;;;;6.53;4.40;;;8.70;99.90;;;;;;5017387;28;20095;-65
2023/04/24 05:44:57;;;;;;;8.88;4.43;;;8.70;99.90;;;;;;5017226;28;20083;-65
2023/04/24 05:47:22;;;;;;;7.88;4.70;;;8.60;99.90;;;;;;5019327;28;21095;-66
2023/04/24 05:49:48;;;;;;;7.53;4.80;;;8.60;99.90;;;;;;5021635;28;20135;-68
2023/04/24 05:52:14;;;;;;;7.90;4.80;;;8.60;99.90;;;;;;5016801;28;20042;-66
2023/04/24 05:54:39;;;;;;;7.35;4.35;;;8.60;99.90;;;;;;5006994;28;20050;-65
2023/04/24 05:57:07;;;;;;;9.15;5.13;;;8.70;99.90;;;;;;5026329;28;20048;-66
2023/04/24 05:59:38;;;;;;;8.45;4.68;;;8.70;99.90;;;;;;5031486;28;20166;-66
2023/04/24 06:02:04;;;;;;;8.43;4.60;;;8.80;99.90;;;;;;5020424;28;20124;-66
2023/04/24 06:04:29;;;;;;;9.25;5.57;;;8.80;99.90;;;;;;5029857;28;20164;-66
2023/04/24 06:06:55;;;;;;;10.77;5.28;;;8.80;99.90;;;;;;5017300;28;20050;-66
2023/04/24 06:09:25;;;;;;;11.43;5.18;;;8.90;99.90;;;;;;4994442;28;20060;-68
2023/04/24 06:11:53;;;;;;;10.60;5.03;;;8.90;99.90;;;;;;5013882;28;20034;-67
2023/04/24 06:14:20;;;;;;;9.48;4.57;;;8.90;99.90;;;;;;4995706;28;20045;-67
2023/04/24 06:16:45;;;;;;;8.88;4.80;;;8.90;99.90;;;;;;5014465;28;20052;-70
2023/04/24 06:19:11;;;;;;;8.98;4.50;;;9.00;99.90;;;;;;5006376;28;20037;-69
2023/04/24 06:21:36;;;;;;;8.77;4.68;;;8.90;99.90;;;;;;5017355;28;20076;-68
2023/04/24 06:24:03;;;;;;;8.02;4.20;;;8.90;99.90;;;;;;5021014;28;20120;-69
2023/04/24 06:26:29;;;;;;;7.03;4.05;;;8.90;99.90;;;;;;5015646;28;20491;-68
2023/04/24 06:28:54;;;;;;;7.97;3.95;;;8.90;99.90;;;;;;5019606;28;20172;-68
2023/04/24 06:31:21;;;;;;;6.75;4.28;;;8.90;99.90;;;;;;5025755;28;20799;-70
2023/04/24 06:33:46;;;;;;;8.60;3.88;;;9.00;99.90;;;;;;5019279;28;20069;-68
2023/04/24 06:36:12;;;;;;;8.10;4.70;;;8.90;99.90;;;;;;5013651;28;20076;-68
2023/04/24 06:38:38;;;;;;;8.23;4.45;;;8.90;99.90;;;;;;5013153;28;20046;-68
2023/04/24 06:41:04;;;;;;;7.68;4.18;;;8.90;99.90;;;;;;5034527;28;20758;-68
2023/04/24 06:43:34;;;;;;;7.10;4.25;;;9.00;99.90;;;;;;5029064;28;20048;-68
2023/04/24 06:46:00;;;;;;;7.82;3.88;;;9.00;99.90;;;;;;5032060;28;20073;-67
2023/04/24 06:48:26;;;;;;;8.07;4.43;;;9.10;99.90;;;;;;5014163;28;20045;-68
2023/04/24 06:50:52;;;;;;;8.07;4.45;;;9.10;99.90;;;;;;5024205;28;20048;-69
2023/04/24 06:53:17;;;;;;;8.48;4.28;;;9.20;99.90;;;;;;5027870;28;20473;-68
2023/04/24 06:55:44;;;;;;;7.93;4.45;;;9.20;99.90;;;;;;5031957;28;20041;-68
2023/04/24 06:58:10;;;;;;;8.50;4.13;;;9.20;99.90;;;;;;5030660;28;20041;-68
2023/04/24 07:00:36;;;;;;;6.75;4.30;;;9.30;99.90;;;;;;5023404;28;20481;-68
2023/04/24 07:03:02;;;;;;;11.05;4.60;;;9.20;99.90;;;;;;5021802;28;20131;-68
2023/04/24 07:05:28;;;;;;;5.20;3.33;;;9.30;99.90;;;;;;5020199;28;20180;-67
2023/04/24 07:07:53;;;;;;;5.38;3.25;;;9.30;99.90;;;;;;5019950;28;20124;-67
2023/04/24 07:10:20;;;;;;;5.68;3.25;;;9.30;99.90;;;;;;5019102;28;20037;-67
2023/04/24 07:12:46;;;;;;;4.15;2.40;;;9.30;99.90;;;;;;5009370;28;20049;-68
2023/04/24 07:15:12;;;;;;;4.90;2.63;;;9.40;99.90;;;;;;4999348;28;20052;-68
2023/04/24 07:17:38;;;;;;;5.03;2.70;;;9.50;99.90;;;;;;5033615;28;20470;-67
2023/04/24 07:20:05;;;;;;;4.60;2.42;;;9.60;99.90;;;;;;5023124;28;20052;-67
2023/04/24 07:22:31;;;;;;;4.82;2.95;;;9.60;99.90;;;;;;5024761;28;20038;-68
2023/04/24 07:24:56;;;;;;;5.40;2.70;;;9.70;99.90;;;;;;5029801;28;20052;-67
2023/04/24 07:27:22;;;;;;;4.45;2.90;;;9.90;99.90;;;;;;5008284;28;20473;-66
2023/04/24 07:29:47;;;;;;;5.13;2.88;;;10.00;99.90;;;;;;5030367;28;20131;-67
2023/04/24 07:32:13;;;;;;;6.85;3.88;;;10.00;99.90;;;;;;5030140;28;20044;-67
2023/04/24 07:34:39;;;;;;;7.78;4.40;;;10.10;99.90;;;;;;5027205;28;20034;-67
2023/04/24 07:37:05;;;;;;;8.38;4.50;;;10.20;99.90;;;;;;5023880;28;20499;-68
2023/04/24 07:39:30;;;;;;;10.40;4.80;;;10.20;99.90;;;;;;5000952;28;20099;-67
2023/04/24 07:41:58;;;;;;;9.40;4.63;;;10.30;99.90;;;;;;5024930;28;20433;-67
2023/04/24 07:44:24;;;;;;;13.13;5.57;;;10.30;99.90;;;;;;5027460;28;20109;-66
2023/04/24 07:46:49;;;;;;;8.43;4.80;;;10.30;99.90;;;;;;5014215;28;20176;-65
2023/04/24 07:49:15;;;;;;;9.90;4.10;;;10.30;99.90;;;;;;5016711;28;20382;-67
2023/04/24 07:51:41;;;;;;;9.48;3.80;;;10.20;99.90;;;;;;5020528;28;20042;-66
2023/04/24 07:54:06;;;;;;;7.22;2.90;;;10.20;99.90;;;;;;5018448;28;20041;-67
2023/04/24 07:56:32;;;;;;;4.63;2.60;;;10.10;99.90;;;;;;5007022;28;20044;-66
2023/04/24 07:58:58;;;;;;;6.22;2.92;;;10.00;99.90;;;;;;5023814;28;20505;-66
2023/04/24 08:01:24;;;;;;;3.15;1.90;;;10.10;99.90;;;;;;5019711;28;20041;-67
2023/04/24 08:03:51;;;;;;;7.20;2.25;;;10.00;99.90;;;;;;5011019;28;20486;-67
2023/04/24 08:06:16;;;;;;;7.07;1.95;;;10.10;99.90;;;;;;5020158;28;20052;-67
2023/04/24 08:08:42;;;;;;;4.53;2.17;;;10.10;99.90;;;;;;5021988;28;20463;-67
2023/04/24 08:11:07;;;;;;;7.00;2.08;;;10.00;99.90;;;;;;5025829;28;20402;-67
2023/04/24 08:13:33;;;;;;;6.82;2.15;;;10.10;99.90;;;;;;5033785;28;20432;-68
2023/04/24 08:15:59;;;;;;;3.47;2.30;;;10.10;99.90;;;;;;5029851;28;20041;-67
2023/04/24 08:18:25;;;;;;;3.88;2.55;;;10.10;99.90;;;;;;5030476;28;20380;-67
2023/04/24 08:20:50;;;;;;;4.82;2.22;;;10.10;99.90;;;;;;5026753;28;20044;-68
2023/04/24 08:23:16;;;;;;;5.60;2.30;;;10.10;99.90;;;;;;5033177;28;20037;-67
2023/04/24 08:25:41;;;;;;;4.70;2.60;;;10.10;99.90;;;;;;5021728;28;20038;-67
2023/04/24 08:28:09;;;;;;;4.13;2.42;;;10.10;99.90;;;;;;5029565;28;20045;-67
2023/04/24 08:30:34;;;;;;;6.32;2.42;;;10.00;99.90;;;;;;5029955;28;20045;-67
2023/04/24 08:33:00;;;;;;;8.00;2.17;;;9.90;99.90;;;;;;5011920;28;20555;-67
2023/04/24 08:35:26;;;;;;;8.68;3.40;;;9.80;99.90;;;;;;5029389;28;20042;-67
2023/04/24 08:37:53;;;;;;;7.07;2.75;;;9.90;99.90;;;;;;5027591;28;20355;-67
2023/04/24 08:40:26;;;;;;;7.93;2.60;;;9.80;99.90;;;;;;5026606;28;20055;-66
2023/04/24 08:42:55;;;;;;;7.93;3.78;;;9.80;99.90;;;;;;5019503;28;20034;-66
2023/04/24 08:45:21;;;;;;;8.80;3.33;;;9.80;99.90;;;;;;5022297;28;20049;-67
2023/04/24 08:47:49;;;;;;;10.18;4.70;;;9.80;99.90;;;;;;5026335;28;20492;-66
2023/04/24 08:50:15;;;;;;;11.95;5.55;;;9.70;99.90;;;;;;5027356;28;20044;-66
2023/04/24 08:52:42;;;;;;;18.17;7.88;;;9.70;99.90;;;;;;5013191;28;20053;-67
2023/04/24 08:55:08;;;;;;;20.35;8.40;;;9.70;99.90;;;;;;5029422;28;20033;-66
2023/04/24 08:57:35;;;;;;;19.15;9.15;;;9.60;99.90;;;;;;5023434;28;20116;-66
2023/04/24 09:00:01;;;;;;;24.38;9.73;;;9.60;99.90;;;;;;5032490;28;20046;-66
2023/04/24 09:02:28;;;;;;;24.23;10.25;;;9.50;99.90;;;;;;5023095;28;20052;-65
2023/04/24 09:04:56;;;;;;;25.48;11.00;;;9.50;99.90;;;;;;5025136;28;20553;-67
2023/04/24 09:07:25;;;;;;;26.20;11.10;;;9.40;99.90;;;;;;5010766;28;20064;-67
2023/04/24 09:09:51;;;;;;;24.95;11.93;;;9.30;99.90;;;;;;5028127;28;20120;-66
2023/04/24 09:12:18;;;;;;;24.10;11.48;;;9.40;99.90;;;;;;5017650;28;20030;-66
2023/04/24 09:14:45;;;;;;;23.27;12.07;;;9.40;99.90;;;;;;5018165;28;20072;-67
2023/04/24 09:17:13;;;;;;;27.05;11.65;;;9.30;99.90;;;;;;5025228;28;20037;-66
2023/04/24 09:19:40;;;;;;;23.45;11.88;;;9.30;99.90;;;;;;5027640;28;20041;-66
2023/04/24 09:22:07;;;;;;;32.38;12.43;;;9.20;99.90;;;;;;5024208;28;20508;-66
2023/04/24 09:24:34;;;;;;;27.75;12.88;;;9.20;99.90;;;;;;5027672;28;20050;-67
2023/04/24 09:27:01;;;;;;;24.48;12.25;;;9.20;99.90;;;;;;5028122;28;20080;-66
2023/04/24 09:29:27;;;;;;;27.05;13.13;;;9.10;99.90;;;;;;5029269;28;20091;-67
2023/04/24 09:31:53;;;;;;;26.98;12.00;;;9.10;99.90;;;;;;5027704;28;20124;-66
2023/04/24 09:34:23;;;;;;;23.05;11.30;;;9.00;99.90;;;;;;5031308;28;20120;-66
2023/04/24 09:36:49;;;;;;;21.63;10.43;;;9.10;99.90;;;;;;5012078;28;20466;-66
2023/04/24 09:39:16;;;;;;;25.58;12.80;;;8.90;99.90;;;;;;5014161;28;20129;-66
2023/04/24 09:41:57;;;;;;;25.95;11.93;;;8.90;99.90;;;;;;5030839;28;20044;-66
2023/04/24 09:44:24;;;;;;;23.50;12.00;;;8.90;99.90;;;;;;5028905;28;20041;-66
2023/04/24 09:46:57;;;;;;;30.15;12.43;;;8.90;99.90;;;;;;5002481;28;20140;-66
2023/04/24 09:49:27;;;;;;;25.92;11.55;;;8.90;99.90;;;;;;5023450;28;20582;-67
2023/04/24 09:52:06;;;;;;;28.30;12.10;;;9.00;99.90;;;;;;5027259;28;20136;-66
2023/04/24 09:54:33;;;;;;;23.65;11.57;;;8.90;99.90;;;;;;5030091;28;22821;-66
2023/04/24 09:56:59;;;;;;;27.52;11.50;;;8.90;99.90;;;;;;5025700;28;20446;-65
2023/04/24 09:59:25;;;;;;;21.30;10.85;;;8.90;99.90;;;;;;5030783;28;20107;-67
2023/04/24 10:01:52;;;;;;;23.42;12.07;;;9.00;99.90;;;;;;5028729;28;20026;-67
2023/04/24 10:04:25;;;;;;;21.55;12.00;;;9.10;99.90;;;;;;5031932;28;20121;-68
2023/04/24 10:06:53;;;;;;;21.48;10.75;;;9.00;99.90;;;;;;5004336;28;20058;-67
2023/04/24 10:09:21;;;;;;;22.67;11.10;;;9.00;99.90;;;;;;5031624;28;20049;-67
2023/04/24 10:11:53;;;;;;;17.92;9.70;;;9.10;99.90;;;;;;5009610;28;20409;-66
2023/04/24 10:14:20;;;;;;;18.60;9.27;;;9.00;99.90;;;;;;5010857;28;20044;-66
2023/04/24 10:16:46;;;;;;;20.08;9.52;;;9.00;99.90;;;;;;5012024;28;20492;-66
2023/04/24 10:19:13;;;;;;;23.70;9.98;;;8.90;99.90;;;;;;5026676;28;20033;-67
2023/04/24 10:21:42;;;;;;;20.40;9.32;;;9.00;99.90;;;;;;5031307;28;20033;-66
2023/04/24 10:24:08;;;;;;;14.70;8.63;;;9.00;99.90;;;;;;5031702;28;20034;-66
2023/04/24 10:26:35;;;;;;;19.17;9.60;;;8.90;99.90;;;;;;5031100;28;20056;-67
2023/04/24 10:29:01;;;;;;;18.08;9.07;;;9.00;99.90;;;;;;5026027;28;20041;-66
2023/04/24 10:31:31;;;;;;;15.63;8.27;;;8.90;99.90;;;;;;5025552;28;20046;-66
2023/04/24 10:33:57;;;;;;;16.73;8.18;;;8.80;99.90;;;;;;5015136;28;20030;-66
2023/04/24 10:36:26;;;;;;;16.13;8.65;;;8.90;99.90;;;;;;5027862;28;20061;-66
2023/04/24 10:38:54;;;;;;;16.67;7.75;;;9.00;99.90;;;;;;5014193;28;20475;-66
2023/04/24 10:41:22;;;;;;;16.95;8.70;;;9.00;99.90;;;;;;5014012;28;20034;-65
2023/04/24 10:44:03;;;;;;;15.57;7.75;;;9.10;99.90;;;;;;5003547;28;20674;-66
2023/04/24 10:46:29;;;;;;;;;;;9.20;99.90;;;;;;5013181;28;20042;-66
2023/04/24 10:48:56;;;;;;;15.23;7.50;;;9.10;99.90;;;;;;5024752;28;19921;-66
2023/04/24 10:51:23;;;;;;;13.27;6.25;;;9.10;99.90;;;;;;5014155;28;20037;-65
2023/04/24 10:53:51;;;;;;;17.02;7.22;;;9.10;99.90;;;;;;5015680;28;20034;-66
2023/04/24 10:56:17;;;;;;;11.95;6.72;;;9.20;99.90;;;;;;5019484;28;20568;-65
2023/04/24 10:58:45;;;;;;;15.40;7.00;;;9.20;99.90;;;;;;5025027;28;20045;-66
2023/04/24 11:01:34;;;;;;;15.23;6.00;;;9.10;99.90;;;;;;5022402;28;20705;-66
2023/04/24 11:04:02;;;;;;;14.45;5.45;;;9.10;99.90;;;;;;5014771;28;20092;-66
2023/04/24 11:06:35;;;;;;;11.93;4.47;;;9.00;99.90;;;;;;5016823;28;20076;-66
2023/04/24 11:09:07;;;;;;;9.90;4.53;;;9.00;99.90;;;;;;5033396;28;20129;-65
2023/04/24 11:11:34;;;;;;;11.13;4.78;;;8.90;99.90;;;;;;5029868;28;20029;-66
2023/04/24 11:13:59;;;;;;;12.43;4.65;;;9.00;99.90;;;;;;5014388;28;20029;-66
2023/04/24 11:16:29;;;;;;;10.82;4.72;;;8.90;99.90;;;;;;4994738;28;20374;-66
2023/04/24 11:19:16;;;;;;;12.02;4.45;;;8.90;99.90;;;;;;5023422;28;20041;-64
2023/04/24 11:21:47;;;;;;;13.75;4.50;;;8.80;99.90;;;;;;5014010;28;20112;-63
2023/04/24 11:24:37;;;;;;;11.77;4.18;;;8.80;99.90;;;;;;5028898;28;20042;-64
2023/04/24 11:27:03;;;;;;;10.38;3.35;;;8.80;99.90;;;;;;5031468;28;20059;-64
2023/04/24 11:29:46;;;;;;;7.90;3.70;;;8.90;99.90;;;;;;5034268;28;20049;-64
2023/04/24 11:32:28;;;;;;;7.85;3.40;;;9.20;99.90;;;;;;5028847;28;20053;-64
2023/04/24 11:34:58;;;;;;;9.95;3.78;;;9.30;99.90;;;;;;4997768;28;20695;-64
2023/04/24 11:37:27;;;;;;;7.63;3.37;;;9.40;99.90;;;;;;5031568;28;20048;-64
2023/04/24 11:39:54;;;;;;;12.20;3.20;;;9.40;99.90;;;;;;5033652;28;20075;-64
2023/04/24 11:42:22;;;;;;;6.10;3.47;;;9.20;99.90;;;;;;5033732;28;20041;-64
2023/04/24 11:44:48;;;;;;;8.85;3.30;;;9.00;99.90;;;;;;5030902;28;20041;-64
2023/04/24 11:47:14;;;;;;;11.32;3.15;;;8.90;99.90;;;;;;5030690;28;20401;-64
2023/04/24 11:49:40;;;;;;;7.43;3.20;;;8.90;99.90;;;;;;5023202;28;20045;-64
2023/04/24 11:52:06;;;;;;;12.40;3.42;;;8.80;99.90;;;;;;5030465;28;20662;-63
2023/04/24 11:54:31;;;;;;;9.52;2.92;;;8.70;99.90;;;;;;5011441;28;20113;-64
2023/04/24 11:56:57;;;;;;;7.68;3.20;;;8.90;99.90;;;;;;5031173;28;20116;-64
2023/04/24 11:59:23;;;;;;;9.93;3.55;;;8.90;99.90;;;;;;5033778;28;20129;-64
2023/04/24 12:01:49;;;;;;;11.00;3.65;;;9.20;99.90;;;;;;5015571;28;20472;-63
2023/04/24 12:04:16;;;;;;;16.95;5.03;;;9.20;99.90;;;;;;5026969;28;20043;-63
2023/04/24 12:07:05;;;;;;;14.30;5.10;;;9.20;99.90;;;;;;5032732;28;20634;-63
2023/04/24 12:09:42;;;;;;;9.45;3.22;;;9.10;99.90;;;;;;5030347;28;20038;-63
2023/04/24 12:12:08;;;;;;;6.78;2.95;;;8.90;99.90;;;;;;5026418;28;20530;-64
2023/04/24 12:14:41;;;;;;;10.32;2.78;;;8.80;99.90;;;;;;5012152;28;20103;-66
2023/04/24 12:17:07;;;;;;;12.98;2.80;;;8.70;99.90;;;;;;5024167;28;20049;-63
2023/04/24 12:19:32;;;;;;;4.85;2.00;;;8.50;99.90;;;;;;5022456;28;20083;-62
2023/04/24 12:22:03;;;;;;;4.88;2.40;;;8.40;99.90;;;;;;5028820;28;20034;-63
2023/04/24 12:24:30;;;;;;;5.50;2.17;;;8.30;99.90;;;;;;5032846;28;20456;-63
2023/04/24 12:26:56;;;;;;;5.85;2.25;;;8.30;99.90;;;;;;5030351;28;20095;-63
2023/04/24 12:29:22;;;;;;;4.38;1.98;;;8.20;99.90;;;;;;5030633;28;20497;-63
2023/04/24 12:31:48;;;;;;;12.23;2.20;;;8.20;99.90;;;;;;5029303;28;20044;-62
2023/04/24 12:34:25;;;;;;;4.65;2.15;;;8.20;99.90;;;;;;5032141;28;20041;-62
2023/04/24 12:36:51;;;;;;;5.65;2.22;;;8.30;99.90;;;;;;5030980;28;20092;-62
2023/04/24 12:39:18;;;;;;;8.70;2.40;;;8.30;99.90;;;;;;5029443;28;20061;-62
2023/04/24 12:41:57;;;;;;;4.13;2.30;;;8.40;99.90;;;;;;5031344;28;20087;-62
2023/04/24 12:44:34;;;;;;;6.00;2.10;;;8.40;99.90;;;;;;5033134;28;20056;-61
2023/04/24 12:47:00;;;;;;;5.45;1.90;;;8.50;99.90;;;;;;5030128;28;20752;-62
2023/04/24 12:49:26;;;;;;;5.22;1.75;;;8.60;99.90;;;;;;5025695;28;20100;-62
2023/04/24 12:51:52;;;;;;;6.22;1.83;;;8.80;99.90;;;;;;5030638;28;20041;-61